This is the latest recevied weather packets stored in our database for station/object W4ZHA. If no packets are shown the sender has not sent any weather packets the latest 10 day(s).
| Time | Temp. | Humidity | Pressure | Rain* | Wind** | Luminosity | Snow |
|---|---|---|---|---|---|---|---|
| 1788037122 | 31.67° C | 54% | 1019 hPa | 0 mm | - | 75 W/m² | - |
| 1788036817 | 33.89° C | 47% | 1018.6 hPa | 0 mm | - | 89 W/m² | - |
| 1788036515 | 32.78° C | 53% | 1018.3 hPa | 0 mm | - | 346 W/m² | - |
| 1788036214 | 32.22° C | 53% | 1019 hPa | 0 mm | - | 457 W/m² | - |
| 1788035915 | 33.33° C | 47% | 1019 hPa | 0 mm | - | 467 W/m² | - |
| 1788035614 | 33.89° C | 47% | 1019 hPa | 0 mm | - | 466 W/m² | - |
| 1788035310 | 32.22° C | 53% | 1019 hPa | 0 mm | - | 460 W/m² | - |
| 1788035006 | 32.78° C | 53% | 1019.3 hPa | 0 mm | - | 417 W/m² | - |
| 1788034702 | 31.67° C | 54% | 1019.3 hPa | 0 mm | - | 226 W/m² | - |
| 1788034398 | 31.67° C | 54% | 1019.3 hPa | 0 mm | - | 110 W/m² | - |
| 1788034093 | 31.67° C | 53% | 1019.3 hPa | 0 mm | - | 503 W/m² | - |
| 1788033791 | 32.22° C | 53% | 1019.3 hPa | 0 mm | - | 487 W/m² | - |
| 1788033486 | 31.67° C | 55% | 1019.3 hPa | 0 mm | - | 475 W/m² | - |
| 1788033181 | 31.67° C | 54% | 1019.3 hPa | 0 mm | - | 88 W/m² | - |
| 1788032876 | 33.89° C | 47% | 1019.6 hPa | 0 mm | - | 110 W/m² | - |
| 1788032575 | 33.89° C | 47% | 1019.6 hPa | 0 mm | - | 372 W/m² | - |
| 1788032271 | 31.67° C | 55% | 1019.3 hPa | 0 mm | - | 473 W/m² | - |
| 1788031967 | 32.22° C | 53% | 1019.3 hPa | 0 mm | - | 479 W/m² | - |
| 1788031662 | 31.67° C | 56% | 1019.6 hPa | 0 mm | - | 477 W/m² | - |
| 1788031356 | 31.67° C | 55% | 1019.6 hPa | 0 mm | - | 483 W/m² | - |
| 1788031056 | 32.78° C | 47% | 1019.6 hPa | 0 mm | - | 477 W/m² | - |
| 1788030745 | 31.67° C | 55% | 1019.6 hPa | 0 mm | - | 158 W/m² | - |
| 1788030444 | 33.33° C | 47% | 1019.6 hPa | 0 mm | - | 113 W/m² | - |
| 1788030140 | 33.33° C | 47% | 1020 hPa | 0 mm | - | 493 W/m² | - |
| 1788029840 | 33.89° C | 46% | 1020 hPa | 0 mm | - | 498 W/m² | - |
* Rain latest hour (hover to see other rain measurements)
** Current wind speed in m/s (hover to see current wind gust speed)